Time;durP1;ratioP1;P1;durP2;ratioP2;P2;SDS_P1;SDS_P2;PMS_P1;PMS_P2;Temp;Humidity;BMP_temperature;BMP_pressure;BME280_temperature;BME280_humidity;BME280_pressure;Samples;Min_cycle;Max_cycle;Signal;HPM_P1;HPM_P2
2024/04/26 00:02:10;;;;;;;13.93;12.60;;;6.10;99.90;;;;;;6375056;22;20315;-66
2024/04/26 00:04:36;;;;;;;13.00;11.63;;;6.10;99.90;;;;;;6375065;22;20048;-66
2024/04/26 00:07:01;;;;;;;12.35;11.05;;;6.10;99.90;;;;;;6375628;22;20014;-66
2024/04/26 00:09:29;;;;;;;12.73;11.52;;;6.10;99.90;;;;;;6374814;22;20304;-66
2024/04/26 00:11:55;;;;;;;13.20;11.55;;;6.10;99.90;;;;;;6374731;22;20010;-66
2024/04/26 00:14:20;;;;;;;13.98;12.60;;;6.10;99.90;;;;;;6374846;22;20003;-66
2024/04/26 00:16:46;;;;;;;13.68;12.18;;;6.10;99.90;;;;;;6374880;22;20003;-66
2024/04/26 00:19:12;;;;;;;13.27;11.82;;;6.10;99.90;;;;;;6374561;22;20378;-66
2024/04/26 00:21:43;;;;;;;13.73;12.38;;;6.10;99.90;;;;;;6374596;22;20035;-66
2024/04/26 00:24:14;;;;;;;14.80;13.18;;;6.10;99.90;;;;;;6374973;22;20003;-66
2024/04/26 00:26:39;;;;;;;13.32;12.07;;;6.10;99.90;;;;;;6374427;22;20007;-66
2024/04/26 00:29:05;;;;;;;13.85;12.52;;;6.10;99.90;;;;;;6374735;22;19999;-66
2024/04/26 00:31:31;;;;;;;15.05;13.68;;;6.10;99.90;;;;;;6374425;22;20007;-66
2024/04/26 00:33:56;;;;;;;14.10;12.80;;;6.00;99.90;;;;;;6374348;22;20382;-66
2024/04/26 00:36:22;;;;;;;14.07;12.57;;;6.10;99.90;;;;;;6374177;22;20011;-66
2024/04/26 00:38:48;;;;;;;14.85;13.38;;;6.10;99.90;;;;;;6373586;22;20000;-66
2024/04/26 00:41:14;;;;;;;14.95;13.50;;;6.10;99.90;;;;;;6372538;22;20003;-66
2024/04/26 00:43:40;;;;;;;15.25;13.27;;;6.00;99.90;;;;;;6373320;22;20013;-66
2024/04/26 00:46:09;;;;;;;15.10;13.68;;;6.10;99.90;;;;;;6373853;22;20015;-66
2024/04/26 00:48:35;;;;;;;15.43;13.85;;;6.00;99.90;;;;;;6374368;22;20003;-66
2024/04/26 00:51:02;;;;;;;15.13;13.65;;;6.00;99.90;;;;;;6372238;22;19999;-66
2024/04/26 00:53:28;;;;;;;14.63;13.18;;;6.00;99.90;;;;;;6374165;22;20003;-66
2024/04/26 00:55:54;;;;;;;15.73;13.82;;;6.00;99.90;;;;;;6374371;22;20425;-66
2024/04/26 00:58:20;;;;;;;14.32;12.95;;;6.00;99.90;;;;;;6372691;22;20082;-66
2024/04/26 01:00:46;;;;;;;16.52;14.30;;;6.00;99.90;;;;;;6373080;22;20108;-66
2024/04/26 01:03:12;;;;;;;15.55;13.95;;;6.00;99.90;;;;;;6374347;22;20003;-66
2024/04/26 01:05:37;;;;;;;14.63;13.23;;;6.00;99.90;;;;;;6373180;22;20426;-66
2024/04/26 01:08:03;;;;;;;14.63;13.13;;;6.00;99.90;;;;;;6372163;22;20017;-66
2024/04/26 01:10:29;;;;;;;14.10;12.70;;;6.00;99.90;;;;;;6373490;22;20003;-66
2024/04/26 01:12:56;;;;;;;13.88;12.48;;;6.00;99.90;;;;;;6370871;22;20007;-66
2024/04/26 01:15:22;;;;;;;13.18;11.88;;;6.00;99.90;;;;;;6373897;22;20458;-66
2024/04/26 01:17:47;;;;;;;14.05;12.25;;;6.00;99.90;;;;;;6371376;22;20003;-66
2024/04/26 01:20:14;;;;;;;14.07;12.57;;;6.00;99.90;;;;;;6372734;22;20003;-66
2024/04/26 01:22:44;;;;;;;14.98;13.05;;;6.00;99.90;;;;;;6373763;22;20015;-66
2024/04/26 01:25:13;;;;;;;14.20;12.43;;;5.90;99.90;;;;;;6371558;22;20003;-66
2024/04/26 01:27:40;;;;;;;14.95;13.25;;;6.00;99.90;;;;;;6371537;22;20011;-66
2024/04/26 01:30:10;;;;;;;18.15;13.50;;;6.00;99.90;;;;;;6373034;22;20085;-66
2024/04/26 01:32:36;;;;;;;15.68;13.60;;;6.00;99.90;;;;;;6373266;22;20014;-66
2024/04/26 01:35:02;;;;;;;14.98;13.38;;;6.00;99.90;;;;;;6373170;22;20007;-66
2024/04/26 01:37:28;;;;;;;16.10;14.40;;;6.00;99.90;;;;;;6374942;22;19999;-66
2024/04/26 01:39:54;;;;;;;14.57;12.68;;;6.00;99.90;;;;;;6377123;22;20005;-66
2024/04/26 01:42:20;;;;;;;19.02;14.32;;;6.00;99.90;;;;;;6375967;22;20013;-66
2024/04/26 01:44:46;;;;;;;15.10;13.23;;;6.00;99.90;;;;;;6375841;22;20010;-66
2024/04/26 01:47:12;;;;;;;15.73;12.55;;;5.90;99.90;;;;;;6375775;22;20015;-66
2024/04/26 01:49:37;;;;;;;19.35;13.93;;;6.00;99.90;;;;;;6373187;22;20003;-66
2024/04/26 01:52:03;;;;;;;13.73;12.40;;;6.00;99.90;;;;;;6377564;22;20359;-66
2024/04/26 01:54:29;;;;;;;15.85;13.32;;;5.90;99.90;;;;;;6375723;22;20003;-66
2024/04/26 01:56:54;;;;;;;18.52;13.50;;;6.00;99.90;;;;;;6377676;22;20031;-66
2024/04/26 01:59:20;;;;;;;17.63;13.18;;;6.00;99.90;;;;;;6375822;22;20418;-66
2024/04/26 02:01:46;;;;;;;18.77;13.63;;;6.00;99.90;;;;;;6377557;22;20003;-66
2024/04/26 02:04:12;;;;;;;15.93;13.48;;;5.90;99.90;;;;;;6375199;22;20014;-66
2024/04/26 02:06:38;;;;;;;16.65;14.95;;;5.90;99.90;;;;;;6377437;22;20342;-66
2024/04/26 02:09:03;;;;;;;16.60;12.63;;;5.90;99.90;;;;;;6375270;22;20003;-66
2024/04/26 02:11:34;;;;;;;14.75;13.18;;;5.90;99.90;;;;;;6375577;22;20086;-66
2024/04/26 02:13:59;;;;;;;16.35;14.65;;;5.90;99.90;;;;;;6377700;22;20432;-66
2024/04/26 02:16:25;;;;;;;16.60;14.93;;;5.90;99.90;;;;;;6375646;22;20007;-66
2024/04/26 02:18:51;;;;;;;16.05;14.38;;;5.90;99.90;;;;;;6377486;22;20328;-66
2024/04/26 02:21:17;;;;;;;17.13;14.10;;;5.90;99.90;;;;;;6375729;22;20003;-66
2024/04/26 02:23:42;;;;;;;17.17;13.90;;;5.90;99.90;;;;;;6377310;22;19999;-66
2024/04/26 02:26:08;;;;;;;20.27;13.73;;;5.90;99.90;;;;;;6375803;22;20340;-66
2024/04/26 02:28:35;;;;;;;15.55;13.68;;;5.80;99.90;;;;;;6376514;22;20010;-66
2024/04/26 02:31:01;;;;;;;15.32;13.80;;;5.90;99.90;;;;;;6374682;22;20014;-66
2024/04/26 02:33:28;;;;;;;16.42;13.75;;;5.80;99.90;;;;;;6377460;22;20003;-66
2024/04/26 02:35:54;;;;;;;16.38;13.93;;;5.90;99.90;;;;;;6377532;22;20013;-66
2024/04/26 02:38:20;;;;;;;17.88;14.18;;;5.80;99.90;;;;;;6377482;22;20004;-66
2024/04/26 02:40:45;;;;;;;17.02;13.65;;;5.80;99.90;;;;;;6376939;22;20304;-66
2024/04/26 02:43:11;;;;;;;19.60;14.35;;;5.80;99.90;;;;;;6377042;22;20002;-66
2024/04/26 02:45:37;;;;;;;15.27;13.15;;;5.80;99.90;;;;;;6377446;22;19999;-66
2024/04/26 02:48:03;;;;;;;16.25;14.07;;;5.70;99.90;;;;;;6376248;22;20315;-66
2024/04/26 02:50:29;;;;;;;18.10;15.43;;;5.70;99.90;;;;;;6375292;22;20017;-66
2024/04/26 02:52:55;;;;;;;18.80;14.57;;;5.70;99.90;;;;;;6375642;22;20015;-66
2024/04/26 02:55:21;;;;;;;15.95;13.63;;;5.70;99.90;;;;;;6375764;22;20003;-66
2024/04/26 02:57:46;;;;;;;19.75;15.15;;;5.70;99.90;;;;;;6375743;22;20003;-66
2024/04/26 03:00:12;;;;;;;16.70;14.65;;;5.70;99.90;;;;;;6375122;22;20003;-66
2024/04/26 03:02:38;;;;;;;20.20;14.43;;;5.70;99.90;;;;;;6375529;22;20044;-66
2024/04/26 03:05:04;;;;;;;18.35;15.40;;;5.70;99.90;;;;;;6375457;22;20003;-66
2024/04/26 03:07:29;;;;;;;17.17;14.65;;;5.70;99.90;;;;;;6375332;22;20370;-66
2024/04/26 03:09:55;;;;;;;19.08;16.15;;;5.80;99.90;;;;;;6375033;22;19995;-66
2024/04/26 03:12:21;;;;;;;16.48;14.10;;;5.70;99.90;;;;;;6375442;22;20002;-66
2024/04/26 03:14:46;;;;;;;18.38;14.65;;;5.70;99.90;;;;;;6375281;22;19999;-66
2024/04/26 03:17:12;;;;;;;16.90;13.98;;;5.80;99.90;;;;;;6375282;22;20013;-66
2024/04/26 03:19:39;;;;;;;19.20;14.93;;;5.80;99.90;;;;;;6375031;22;20019;-66
2024/04/26 03:22:05;;;;;;;15.02;12.73;;;5.80;99.90;;;;;;6375218;22;20014;-66
2024/04/26 03:24:30;;;;;;;14.10;12.60;;;5.80;99.90;;;;;;6374960;22;20011;-66
2024/04/26 03:26:56;;;;;;;13.80;12.40;;;5.80;99.90;;;;;;6374627;22;20003;-66
2024/04/26 03:29:22;;;;;;;15.88;13.93;;;5.80;99.90;;;;;;6374643;22;20013;-66
2024/04/26 03:31:47;;;;;;;14.63;13.02;;;5.80;99.90;;;;;;6374461;22;20067;-66
2024/04/26 03:34:13;;;;;;;15.57;12.13;;;5.90;99.90;;;;;;6375301;22;20025;-66
2024/04/26 03:36:39;;;;;;;14.65;11.55;;;5.90;99.90;;;;;;6375546;22;20003;-66
2024/04/26 03:39:05;;;;;;;16.10;12.52;;;5.90;99.90;;;;;;6374030;22;20003;-66
2024/04/26 03:41:31;;;;;;;14.95;12.88;;;5.90;99.90;;;;;;6374318;22;20035;-66
2024/04/26 03:43:57;;;;;;;16.38;13.00;;;5.80;99.90;;;;;;6374787;22;20078;-66
2024/04/26 03:46:24;;;;;;;17.50;13.73;;;5.90;99.90;;;;;;6374430;22;20467;-66
2024/04/26 03:48:49;;;;;;;16.45;13.48;;;5.90;99.90;;;;;;6374500;22;20007;-66
2024/04/26 03:51:16;;;;;;;15.65;13.77;;;5.90;99.90;;;;;;6374278;22;20003;-66
2024/04/26 03:53:42;;;;;;;16.42;14.23;;;5.90;99.90;;;;;;6375164;22;20082;-66
2024/04/26 03:56:07;;;;;;;15.38;13.77;;;5.90;99.90;;;;;;6374622;22;20132;-66
2024/04/26 03:58:33;;;;;;;16.35;14.55;;;5.90;99.90;;;;;;6373653;22;20090;-66
2024/04/26 04:00:59;;;;;;;19.88;14.02;;;5.90;99.90;;;;;;6371377;22;20003;-66
2024/04/26 04:03:25;;;;;;;16.50;14.27;;;5.90;99.90;;;;;;6372851;22;20018;-66
2024/04/26 04:05:51;;;;;;;16.70;14.48;;;5.80;99.90;;;;;;6374745;22;20387;-66
2024/04/26 04:08:17;;;;;;;16.80;14.88;;;5.80;99.90;;;;;;6374828;22;20432;-66
2024/04/26 04:10:43;;;;;;;20.02;15.60;;;5.80;99.90;;;;;;6374357;22;20014;-66
2024/04/26 04:13:09;;;;;;;22.08;15.65;;;5.80;99.90;;;;;;6374290;22;20014;-66
2024/04/26 04:15:34;;;;;;;18.60;15.20;;;5.80;99.90;;;;;;6373668;22;20011;-66
2024/04/26 04:18:00;;;;;;;16.85;14.98;;;5.70;99.90;;;;;;6373837;22;20725;-66
2024/04/26 04:20:26;;;;;;;19.27;15.35;;;5.70;99.90;;;;;;6373557;22;20003;-66
2024/04/26 04:22:51;;;;;;;18.75;15.70;;;5.70;99.90;;;;;;6372389;22;20317;-66
2024/04/26 04:25:17;;;;;;;19.55;15.48;;;5.70;99.90;;;;;;6373931;22;20014;-66
2024/04/26 04:27:43;;;;;;;17.15;15.35;;;5.70;99.90;;;;;;6373198;22;20014;-66
2024/04/26 04:30:09;;;;;;;18.20;15.38;;;5.70;99.90;;;;;;6371475;22;20003;-66
2024/04/26 04:32:35;;;;;;;16.67;14.85;;;5.60;99.90;;;;;;6373759;22;20015;-66
2024/04/26 04:35:00;;;;;;;19.70;14.45;;;5.60;99.90;;;;;;6373646;22;20075;-66
2024/04/26 04:37:26;;;;;;;18.27;15.32;;;5.60;99.90;;;;;;6374178;22;20330;-66
2024/04/26 04:39:52;;;;;;;17.67;14.27;;;5.60;99.90;;;;;;6374274;22;20004;-66
2024/04/26 04:42:17;;;;;;;16.70;14.80;;;5.50;99.90;;;;;;6372876;22;20003;-66
2024/04/26 04:44:43;;;;;;;16.50;14.52;;;5.60;99.90;;;;;;6373005;22;20003;-66
2024/04/26 04:47:10;;;;;;;17.10;14.65;;;5.50;99.90;;;;;;6370648;22;20032;-66
2024/04/26 04:49:35;;;;;;;18.00;15.27;;;5.60;99.90;;;;;;6371486;22;20366;-66
2024/04/26 04:52:01;;;;;;;19.77;15.18;;;5.60;99.90;;;;;;6370674;22;20003;-66
2024/04/26 04:54:27;;;;;;;16.90;15.10;;;5.60;99.90;;;;;;6370734;22;20014;-66
2024/04/26 04:56:52;;;;;;;16.75;14.77;;;5.70;99.90;;;;;;6371763;22;20003;-66
2024/04/26 04:59:18;;;;;;;16.98;15.18;;;5.80;99.90;;;;;;6368057;22;20411;-66
2024/04/26 05:01:44;;;;;;;17.38;14.30;;;5.90;99.90;;;;;;6372947;22;19999;-66
2024/04/26 05:04:11;;;;;;;16.00;14.05;;;5.90;99.90;;;;;;6372217;22;20053;-66
2024/04/26 05:06:36;;;;;;;16.73;14.75;;;6.20;99.90;;;;;;6368951;22;20014;-66
2024/04/26 05:09:02;;;;;;;16.17;13.73;;;7.50;99.90;;;;;;6371383;22;20526;-66
2024/04/26 05:11:28;;;;;;;12.55;11.25;;;7.80;99.90;;;;;;6368583;22;20730;-65
2024/04/26 05:13:54;;;;;;;13.05;11.25;;;8.50;99.90;;;;;;6368135;22;20307;-66
2024/04/26 05:16:19;;;;;;;11.25;9.70;;;8.90;99.90;;;;;;6370160;22;20007;-66
2024/04/26 05:18:45;;;;;;;10.10;9.10;;;9.40;99.90;;;;;;6367810;22;20040;-66
2024/04/26 05:21:11;;;;;;;9.85;8.32;;;10.20;99.90;;;;;;6372126;22;20003;-66
2024/04/26 05:23:36;;;;;;;8.95;8.15;;;10.80;99.90;;;;;;6368437;22;20010;-66
2024/04/26 05:26:03;;;;;;;9.95;8.95;;;11.50;99.90;;;;;;6371065;22;20017;-66
2024/04/26 05:28:29;;;;;;;8.13;7.32;;;11.80;99.90;;;;;;6372143;22;20004;-65
2024/04/26 05:30:55;;;;;;;8.70;7.80;;;11.70;99.90;;;;;;6370215;22;19999;-66
2024/04/26 05:33:20;;;;;;;8.70;7.90;;;11.50;99.90;;;;;;6370244;22;19999;-66
2024/04/26 05:35:46;;;;;;;8.27;7.10;;;12.20;99.90;;;;;;6370126;22;20105;-66
2024/04/26 05:38:12;;;;;;;8.50;7.60;;;12.70;99.90;;;;;;6369358;22;20003;-66
2024/04/26 05:40:37;;;;;;;8.20;7.43;;;13.20;99.90;;;;;;6369941;22;20018;-66
2024/04/26 05:43:03;;;;;;;8.38;7.63;;;13.70;99.90;;;;;;6368654;22;20015;-66
2024/04/26 05:45:29;;;;;;;7.55;6.90;;;14.20;99.90;;;;;;6373006;22;20000;-66
2024/04/26 05:47:55;;;;;;;6.10;5.68;;;14.80;99.90;;;;;;6370279;22;20340;-67
2024/04/26 05:50:21;;;;;;;6.60;6.00;;;15.60;99.90;;;;;;6371898;22;20011;-67
2024/04/26 05:52:47;;;;;;;7.40;6.70;;;16.00;99.90;;;;;;6367322;22;20003;-66
2024/04/26 05:55:13;;;;;;;9.07;6.60;;;16.20;99.90;;;;;;6372554;22;20000;-66
2024/04/26 05:57:38;;;;;;;7.78;6.53;;;16.70;99.90;;;;;;6371451;22;20003;-66
2024/04/26 06:00:05;;;;;;;7.03;6.32;;;16.90;99.90;;;;;;6365925;22;19999;-66
2024/04/26 06:02:30;;;;;;;7.35;6.60;;;16.20;99.90;;;;;;6368397;22;20011;-66
2024/04/26 06:05:01;;;;;;;7.45;6.85;;;15.50;99.90;;;;;;6366332;22;20078;-66
2024/04/26 06:07:39;;;;;;;7.82;6.85;;;14.70;99.90;;;;;;6366400;22;20080;-66
2024/04/26 06:10:07;;;;;;;8.23;7.18;;;14.10;99.90;;;;;;6364656;22;20003;-66
2024/04/26 06:12:33;;;;;;;7.60;6.85;;;13.70;99.90;;;;;;6367265;22;20030;-66
2024/04/26 06:14:59;;;;;;;8.73;7.05;;;13.40;99.90;;;;;;6368848;22;20017;-66
2024/04/26 06:17:25;;;;;;;7.75;6.95;;;13.10;99.90;;;;;;6367862;22;20003;-66
2024/04/26 06:19:52;;;;;;;7.65;6.95;;;12.70;99.90;;;;;;6370883;22;20010;-67
2024/04/26 06:22:17;;;;;;;7.95;7.15;;;12.40;99.90;;;;;;6369882;22;20418;-67
2024/04/26 06:24:43;;;;;;;7.35;6.65;;;12.00;99.90;;;;;;6369671;22;20014;-66
2024/04/26 06:27:09;;;;;;;8.15;7.35;;;11.40;99.90;;;;;;6370355;22;20501;-66
2024/04/26 06:29:34;;;;;;;9.38;7.78;;;11.30;99.90;;;;;;6369328;22;20213;-66
2024/04/26 06:32:03;;;;;;;7.15;6.45;;;11.30;99.90;;;;;;6374335;22;20323;-66
2024/04/26 06:34:32;;;;;;;7.22;6.53;;;11.70;99.90;;;;;;6370697;22;20451;-66
2024/04/26 06:36:59;;;;;;;7.40;6.53;;;11.80;99.90;;;;;;6374807;22;20078;-66
2024/04/26 06:39:25;;;;;;;7.15;6.45;;;11.40;99.90;;;;;;6367108;22;20006;-66
2024/04/26 06:41:51;;;;;;;7.63;6.82;;;11.10;99.90;;;;;;6370404;22;20007;-66
2024/04/26 06:44:16;;;;;;;7.03;6.32;;;10.50;99.90;;;;;;6370565;22;20291;-66
2024/04/26 06:46:42;;;;;;;8.52;7.72;;;10.80;99.90;;;;;;6372309;22;20014;-66
2024/04/26 06:49:08;;;;;;;6.85;6.15;;;10.80;99.90;;;;;;6370527;22;19996;-65
2024/04/26 06:51:34;;;;;;;10.40;6.65;;;11.10;99.90;;;;;;6370225;22;20018;-66
2024/04/26 06:54:00;;;;;;;6.97;6.15;;;11.50;99.90;;;;;;6371134;22;20017;-66
2024/04/26 06:56:25;;;;;;;7.25;6.10;;;11.80;99.90;;;;;;6374618;22;20007;-66
2024/04/26 06:58:51;;;;;;;8.98;6.57;;;11.80;99.90;;;;;;6370216;22;20011;-66
2024/04/26 07:01:17;;;;;;;6.57;5.60;;;12.00;99.90;;;;;;6371210;22;19999;-66
2024/04/26 07:03:43;;;;;;;10.80;6.05;;;12.10;99.90;;;;;;6369349;22;20575;-66
2024/04/26 07:06:09;;;;;;;8.68;6.30;;;12.00;99.90;;;;;;6369324;22;20003;-66
2024/04/26 07:08:35;;;;;;;6.18;5.57;;;12.10;99.90;;;;;;6372090;22;20003;-66
2024/04/26 07:11:00;;;;;;;6.13;5.47;;;11.70;99.90;;;;;;6372031;22;20442;-66
2024/04/26 07:13:27;;;;;;;7.13;6.35;;;11.60;99.90;;;;;;6370431;22;19999;-66
2024/04/26 07:15:52;;;;;;;7.05;5.97;;;12.00;99.90;;;;;;6373977;22;20015;-66
2024/04/26 07:18:18;;;;;;;6.93;6.30;;;11.80;99.90;;;;;;6372048;22;20354;-66
2024/04/26 07:20:43;;;;;;;6.72;6.03;;;11.70;99.90;;;;;;6370475;22;20015;-66
2024/04/26 07:23:10;;;;;;;9.90;6.38;;;11.70;99.90;;;;;;6370319;22;20080;-66
2024/04/26 07:25:36;;;;;;;9.13;6.80;;;11.70;99.90;;;;;;6371289;22;20055;-66
2024/04/26 07:28:01;;;;;;;8.05;5.75;;;11.50;99.90;;;;;;6370047;22;20746;-66
2024/04/26 07:30:27;;;;;;;6.57;5.15;;;11.30;99.90;;;;;;6371060;22;20003;-66
2024/04/26 07:32:53;;;;;;;5.15;4.40;;;11.10;99.90;;;;;;6372475;22;20435;-66
2024/04/26 07:35:18;;;;;;;5.78;5.18;;;10.80;99.90;;;;;;6372041;22;20018;-66
2024/04/26 07:37:44;;;;;;;5.90;5.20;;;10.70;99.90;;;;;;6372646;22;20082;-66
2024/04/26 07:40:10;;;;;;;10.70;5.55;;;10.60;99.90;;;;;;6369607;22;20003;-66
2024/04/26 07:42:36;;;;;;;5.75;4.53;;;10.60;99.90;;;;;;6371472;22;20018;-66
2024/04/26 07:45:02;;;;;;;6.43;4.43;;;10.60;99.90;;;;;;6370302;22;20007;-66
2024/04/26 07:47:27;;;;;;;6.93;5.00;;;10.60;99.90;;;;;;6370636;22;20026;-66
2024/04/26 07:49:54;;;;;;;8.75;5.40;;;10.60;99.90;;;;;;6371640;22;20023;-66
2024/04/26 07:52:19;;;;;;;4.78;3.88;;;10.60;99.90;;;;;;6368831;22;20014;-66
2024/04/26 07:54:45;;;;;;;7.07;4.85;;;10.60;99.90;;;;;;6373276;22;20014;-66
2024/04/26 07:57:11;;;;;;;4.72;4.10;;;10.60;99.90;;;;;;6372962;22;20518;-66
2024/04/26 07:59:40;;;;;;;8.05;5.45;;;10.60;99.90;;;;;;6374695;22;20007;-66
2024/04/26 08:02:05;;;;;;;5.38;3.85;;;10.50;99.90;;;;;;6373685;22;20067;-66
2024/04/26 08:04:31;;;;;;;5.22;3.72;;;10.40;99.90;;;;;;6373688;22;20007;-66
2024/04/26 08:06:57;;;;;;;6.95;2.53;;;10.20;99.90;;;;;;6374742;22;20039;-66
2024/04/26 08:09:24;;;;;;;4.63;2.92;;;10.00;99.90;;;;;;6374329;22;20402;-66
2024/04/26 08:11:50;;;;;;;4.15;2.40;;;9.80;99.90;;;;;;6372850;22;20659;-66
2024/04/26 08:14:15;;;;;;;2.90;2.00;;;9.70;99.90;;;;;;6373098;22;20009;-66
2024/04/26 08:16:41;;;;;;;5.25;2.03;;;10.10;99.90;;;;;;6373767;22;20003;-66
2024/04/26 08:19:07;;;;;;;4.50;2.25;;;9.30;99.90;;;;;;6373289;22;20003;-66
2024/04/26 08:21:33;;;;;;;3.65;2.20;;;9.70;99.90;;;;;;6374800;22;20332;-66
2024/04/26 08:24:01;;;;;;;2.20;1.13;;;9.20;99.90;;;;;;6374098;22;20003;-67
2024/04/26 08:26:27;;;;;;;2.25;1.10;;;9.20;99.90;;;;;;6374879;22;20003;-66
2024/04/26 08:28:53;;;;;;;2.10;1.10;;;9.20;99.90;;;;;;6372604;22;20032;-66
2024/04/26 08:31:21;;;;;;;1.70;1.00;;;9.30;99.90;;;;;;6373150;22;20012;-66
2024/04/26 08:33:47;;;;;;;1.80;0.98;;;9.30;99.90;;;;;;6366748;22;20003;-67
2024/04/26 08:36:13;;;;;;;4.43;1.33;;;9.60;99.90;;;;;;6372789;22;20078;-66
2024/04/26 08:38:39;;;;;;;3.15;1.40;;;9.70;99.90;;;;;;6374254;22;20003;-66
2024/04/26 08:41:04;;;;;;;2.60;0.93;;;10.00;99.90;;;;;;6373482;22;20003;-66
2024/04/26 08:43:31;;;;;;;3.05;1.23;;;10.30;99.90;;;;;;6330716;22;20003;-66
2024/04/26 08:45:57;;;;;;;1.52;0.77;;;10.70;99.90;;;;;;6372708;22;20051;-66
2024/04/26 08:48:25;;;;;;;2.58;0.60;;;11.30;99.90;;;;;;6373599;22;20014;-66
2024/04/26 08:50:54;;;;;;;2.78;0.75;;;11.60;99.90;;;;;;6374112;22;19999;-66
2024/04/26 08:53:20;;;;;;;3.80;0.85;;;12.10;99.90;;;;;;6372980;22;20023;-67
2024/04/26 08:55:46;;;;;;;2.35;0.55;;;12.40;99.90;;;;;;6374247;22;20003;-67
2024/04/26 08:58:13;;;;;;;0.88;0.30;;;12.60;99.90;;;;;;6372788;22;20003;-66
2024/04/26 09:00:40;;;;;;;0.93;0.38;;;12.80;99.90;;;;;;6370489;22;20461;-66
2024/04/26 09:03:06;;;;;;;2.28;0.52;;;12.80;99.90;;;;;;6373610;22;20014;-66
2024/04/26 09:05:33;;;;;;;0.98;0.30;;;12.90;99.90;;;;;;6373684;22;20003;-66
2024/04/26 09:07:59;;;;;;;1.77;0.20;;;12.90;99.90;;;;;;6368870;22;20011;-66
2024/04/26 09:10:26;;;;;;;2.42;0.28;;;12.90;99.90;;;;;;6373499;22;20014;-66
2024/04/26 09:12:52;;;;;;;1.55;0.20;;;12.90;99.90;;;;;;6374239;22;20003;-66
2024/04/26 09:15:19;;;;;;;1.48;0.20;;;13.00;99.90;;;;;;6371864;22;20014;-66
2024/04/26 09:17:44;;;;;;;1.23;0.20;;;12.80;99.90;;;;;;6373370;22;20003;-66
2024/04/26 09:20:11;;;;;;;0.40;0.20;;;12.80;99.90;;;;;;6373939;22;20296;-66
2024/04/26 09:22:38;;;;;;;3.30;0.65;;;12.80;99.90;;;;;;6372729;22;20082;-66
2024/04/26 09:25:07;;;;;;;2.85;0.30;;;13.00;99.90;;;;;;6374440;22;20479;-66
2024/04/26 09:27:34;;;;;;;1.73;0.38;;;13.30;99.90;;;;;;6372645;22;20710;-66
2024/04/26 09:29:59;;;;;;;1.02;0.30;;;13.40;99.90;;;;;;6373916;22;20003;-66
2024/04/26 09:32:26;;;;;;;1.48;0.20;;;13.50;99.90;;;;;;6371284;22;20027;-66
2024/04/26 09:34:53;;;;;;;2.33;0.50;;;13.20;99.90;;;;;;6371683;22;20004;-66
2024/04/26 09:37:20;;;;;;;0.77;0.10;;;12.80;99.90;;;;;;6374018;22;20014;-66
2024/04/26 09:39:49;;;;;;;0.75;0.10;;;12.50;99.90;;;;;;6372420;22;19999;-66
2024/04/26 09:42:23;;;;;;;1.13;0.20;;;12.20;99.90;;;;;;6372841;22;20011;-66
2024/04/26 09:44:52;;;;;;;0.68;0.10;;;12.10;99.90;;;;;;6370021;22;20359;-66
2024/04/26 09:47:25;;;;;;;0.85;0.15;;;11.80;99.90;;;;;;6373179;22;20419;-66
2024/04/26 09:49:52;;;;;;;0.35;0.10;;;11.90;99.90;;;;;;6374224;22;20650;-66
2024/04/26 09:52:19;;;;;;;0.45;0.10;;;11.90;99.90;;;;;;6374051;22;20007;-66
2024/04/26 09:54:46;;;;;;;0.77;0.10;;;11.70;99.90;;;;;;6372747;22;20004;-66
2024/04/26 09:57:13;;;;;;;2.15;0.35;;;11.50;99.90;;;;;;6372162;22;20010;-66
2024/04/26 09:59:42;;;;;;;1.75;0.20;;;11.60;99.90;;;;;;6374528;22;20014;-66
2024/04/26 10:02:13;;;;;;;1.10;0.43;;;11.50;99.90;;;;;;6374914;22;20608;-66
2024/04/26 10:04:39;;;;;;;0.75;0.10;;;11.40;99.90;;;;;;6374208;22;20007;-66
2024/04/26 10:07:05;;;;;;;2.80;0.20;;;11.50;99.90;;;;;;6376261;22;20135;-66
2024/04/26 10:09:31;;;;;;;1.35;0.20;;;11.60;99.90;;;;;;6374160;22;20014;-66
2024/04/26 10:11:57;;;;;;;0.75;0.20;;;11.70;99.90;;;;;;6376415;22;20003;-66
2024/04/26 10:14:26;;;;;;;1.75;0.20;;;11.50;99.90;;;;;;6376114;22;19999;-66
2024/04/26 10:16:52;;;;;;;0.35;0.10;;;11.60;99.90;;;;;;6374778;22;19999;-66
2024/04/26 10:19:18;;;;;;;1.00;0.10;;;11.50;99.90;;;;;;6375863;22;20547;-66
2024/04/26 10:21:44;;;;;;;0.95;0.30;;;11.40;99.90;;;;;;6373837;22;20003;-66
2024/04/26 10:24:09;;;;;;;1.17;0.10;;;11.20;99.90;;;;;;6376038;22;20008;-66
2024/04/26 10:26:35;;;;;;;1.25;0.20;;;11.00;99.90;;;;;;6373568;22;20003;-66
2024/04/26 10:29:11;;;;;;;1.05;0.10;;;11.30;99.90;;;;;;6373721;22;20015;-66
2024/04/26 10:31:38;;;;;;;0.15;0.10;;;11.70;99.90;;;;;;6375867;22;20019;-66
2024/04/26 10:34:16;;;;;;;0.22;0.00;;;12.30;99.90;;;;;;6374370;22;20007;-66
2024/04/26 10:36:48;;;;;;;2.35;0.10;;;12.80;99.90;;;;;;6376097;22;20003;-66
2024/04/26 10:39:27;;;;;;;0.10;0.03;;;13.30;99.90;;;;;;6373948;22;20003;-66
2024/04/26 10:41:54;;;;;;;0.60;0.10;;;13.80;99.90;;;;;;6374906;22;20003;-66
2024/04/26 10:44:20;;;;;;;1.95;0.10;;;13.90;99.90;;;;;;6373556;22;20003;-66
2024/04/26 10:46:45;;;;;;;2.67;1.10;;;14.30;99.90;;;;;;6372669;22;20014;-66
2024/04/26 10:49:14;;;;;;;2.35;0.30;;;14.60;99.90;;;;;;6375537;22;20056;-66
2024/04/26 10:51:40;;;;;;;1.17;0.20;;;14.60;98.30;;;;;;6374108;22;20039;-66
2024/04/26 10:54:06;;;;;;;2.03;0.40;;;14.50;98.40;;;;;;6375801;22;20035;-66
2024/04/26 10:56:42;;;;;;;1.13;0.65;;;14.50;99.30;;;;;;6374068;22;20007;-66
2024/04/26 10:59:25;;;;;;;3.22;0.30;;;14.40;98.10;;;;;;6374377;22;20018;-66
2024/04/26 11:01:58;;;;;;;0.10;0.10;;;14.00;99.00;;;;;;6375677;22;20003;-66
2024/04/26 11:04:25;;;;;;;0.80;0.10;;;13.90;99.60;;;;;;6374210;22;20446;-66
2024/04/26 11:06:50;;;;;;;2.30;0.85;;;13.80;99.90;;;;;;6374741;22;20082;-66
2024/04/26 11:09:19;;;;;;;0.68;0.10;;;13.60;99.90;;;;;;6372139;22;20011;-65
2024/04/26 11:11:48;;;;;;;0.38;0.10;;;13.50;99.90;;;;;;6373950;22;20003;-66
2024/04/26 11:14:14;;;;;;;0.77;0.10;;;13.50;99.90;;;;;;6372795;22;20011;-66
2024/04/26 11:16:41;;;;;;;0.50;0.10;;;13.80;99.90;;;;;;6372045;22;20014;-66
2024/04/26 11:19:07;;;;;;;1.20;0.20;;;14.10;99.90;;;;;;6374294;22;20031;-65
2024/04/26 11:21:33;;;;;;;0.68;0.17;;;14.10;98.00;;;;;;6373736;22;20427;-66
2024/04/26 11:23:59;;;;;;;1.13;0.30;;;14.20;98.70;;;;;;6375458;22;20003;-66
2024/04/26 11:26:25;;;;;;;0.57;0.10;;;13.90;97.20;;;;;;6373677;22;20011;-66
2024/04/26 11:28:51;;;;;;;0.55;0.10;;;13.80;97.30;;;;;;6374925;22;20094;-66
2024/04/26 11:31:16;;;;;;;1.90;0.20;;;13.60;98.80;;;;;;6374079;22;20510;-66
2024/04/26 11:33:42;;;;;;;0.35;0.10;;;13.70;98.70;;;;;;6372089;22;20031;-66
2024/04/26 11:36:08;;;;;;;0.50;0.08;;;13.60;99.10;;;;;;6375091;22;20015;-66
2024/04/26 11:38:34;;;;;;;0.70;0.10;;;13.60;99.50;;;;;;6373832;22;20017;-66
2024/04/26 11:40:59;;;;;;;1.58;0.10;;;13.80;99.90;;;;;;6374180;22;20003;-66
2024/04/26 11:43:25;;;;;;;0.65;0.10;;;13.90;99.90;;;;;;6374636;22;20003;-66
2024/04/26 11:45:51;;;;;;;2.35;0.10;;;14.20;99.90;;;;;;6374692;22;20311;-66
2024/04/26 11:48:19;;;;;;;1.95;0.10;;;14.60;99.90;;;;;;6373533;22;19999;-66
2024/04/26 11:50:47;;;;;;;2.03;0.20;;;14.90;99.70;;;;;;6373311;22;20003;-66
2024/04/26 11:53:14;;;;;;;1.90;0.40;;;14.90;98.50;;;;;;6374938;22;20018;-66
2024/04/26 11:55:42;;;;;;;0.10;0.00;;;14.90;98.90;;;;;;6373759;22;19999;-66
2024/04/26 11:58:08;;;;;;;1.30;0.20;;;15.00;99.40;;;;;;6375118;22;20459;-66
2024/04/26 12:00:33;;;;;;;0.15;0.10;;;14.90;98.20;;;;;;6373161;22;20003;-66
2024/04/26 12:02:59;;;;;;;0.20;0.10;;;14.70;98.40;;;;;;6375157;22;20000;-66
2024/04/26 12:05:25;;;;;;;1.05;0.15;;;14.50;98.80;;;;;;6371696;22;19999;-66
2024/04/26 12:07:50;;;;;;;0.75;0.20;;;14.30;98.00;;;;;;6374779;22;20299;-66
2024/04/26 12:10:18;;;;;;;0.77;0.10;;;14.20;98.40;;;;;;6372033;22;20003;-66
2024/04/26 12:12:43;;;;;;;0.45;0.10;;;14.00;98.50;;;;;;6374235;22;20004;-66
2024/04/26 12:15:09;;;;;;;1.13;0.20;;;14.20;99.30;;;;;;6374470;22;20079;-66
2024/04/26 12:17:35;;;;;;;0.50;0.30;;;14.20;99.20;;;;;;6373818;22;20323;-66
2024/04/26 12:20:02;;;;;;;0.50;0.10;;;14.10;98.80;;;;;;6372126;22;20003;-66
2024/04/26 12:22:27;;;;;;;0.35;0.10;;;14.00;98.40;;;;;;6373241;22;20007;-66
2024/04/26 12:24:53;;;;;;;2.15;0.10;;;13.90;99.10;;;;;;6374343;22;20319;-66
2024/04/26 12:27:19;;;;;;;1.85;0.10;;;13.90;99.20;;;;;;6374095;22;20011;-66
2024/04/26 12:29:45;;;;;;;0.40;0.03;;;13.70;98.50;;;;;;6373596;22;20379;-66
2024/04/26 12:32:11;;;;;;;2.75;0.30;;;13.80;99.40;;;;;;6372686;22;20014;-66
2024/04/26 12:34:42;;;;;;;0.52;0.10;;;13.70;99.40;;;;;;6373067;22;19999;-66
2024/04/26 12:37:09;;;;;;;1.63;0.32;;;13.50;98.80;;;;;;6374394;22;20011;-66
2024/04/26 12:39:38;;;;;;;3.35;0.25;;;13.90;98.60;;;;;;6370769;22;20003;-66